METAR Data
IDs: Format: Raw Decoded Include TAF

Data at: 1954 UTC 17 Nov 2019

KFWB 171935Z AUTO 25007KT 10SM BKN070 OVC110 10/00 A2996 RMK AO2 P0002 PWINO PNO
KFWB 171915Z AUTO 26007KT 10SM BKN070 OVC075 09/00 A2997 RMK AO2 P0002 PWINO PNO
KFWB 171855Z AUTO 25006KT 10SM BKN070 BKN080 09/00 A2998 RMK AO2 P0002 PWINO PNO
KFWB 171835Z AUTO 24007KT 10SM FEW049 BKN080 OVC095 09/00 A2998 RMK AO2 P0002 PWINO PNO
KFWB 171815Z AUTO 25007KT 1 1/4SM OVC100 09/00 A2998 RMK AO2 VSBY 1V3 P0002 PWINO PNO
KFWB 171755Z AUTO 25005KT 1SM BKN100 BKN120 09/00 A2999 RMK AO2 P0002 PWINO PNO
KFWB 171735Z AUTO 24005KT 1 1/4SM SCT095 09/00 A3000 RMK AO2 P0002 PWINO PNO
KFWB 171715Z AUTO 24005KT 10SM FEW065 FEW080 SCT095 08/M01 A3001 RMK AO2 P0002 PWINO PNO
KFWB 171655Z AUTO 24004KT 10SM FEW065 SCT085 BKN090 08/00 A3003 RMK AO2 P0002 PWINO PNO
KFWB 171635Z AUTO 23004KT 10SM CLR 08/00 A3003 RMK AO2 P0002 PWINO PNO
KFWB 171615Z AUTO 23003KT 10SM CLR 08/00 A3004 RMK AO2 P0002 PWINO PNO
KFWB 171555Z AUTO 00000KT 10SM CLR 07/01 A3005 RMK AO2 P0002 PWINO PNO
KFWB 171535Z AUTO 20003KT 10SM CLR 07/01 A3005 RMK AO2 P0002 PWINO PNO
KFWB 171515Z AUTO 20003KT 10SM CLR 07/01 A3005 RMK AO2 P0002 PWINO PNO
KFWB 171455Z AUTO 00000KT 10SM CLR 06/02 A3005 RMK AO2 P0002 PWINO PNO
KFWB 171435Z AUTO 00000KT 10SM CLR 05/02 A3005 RMK AO2 P0002 PWINO PNO
KFWB 171415Z AUTO 00000KT 10SM CLR 05/02 A3006 RMK AO2 P0002 PWINO PNO
KFWB 171355Z AUTO 00000KT 10SM CLR 04/00 A3006 RMK AO2 P0002 PWINO PNO
KFWB 171335Z AUTO 00000KT 10SM CLR 04/00 A3005 RMK AO2 P0002 PWINO PNO
KFWB 171315Z AUTO 00000KT 10SM CLR 04/00 A3006 RMK AO2 P0002 PWINO PNO
KFWB 171255Z AUTO 00000KT 10SM CLR 04/00 A3006 RMK AO2 P0002 PWINO PNO
KFWB 171235Z AUTO 10003KT 10SM CLR 04/00 A3005 RMK AO2 P0002 PWINO PNO
KFWB 171215Z AUTO 00000KT 10SM CLR 04/00 A3005 RMK AO2 P0002 PWINO PNO
KFWB 171155Z AUTO 00000KT 10SM CLR 04/00 A3005 RMK AO2 P0002 PWINO PNO
KFWB 171135Z AUTO 08003KT 10SM CLR 04/00 A3005 RMK AO2 P0002 PWINO PNO
KFWB 171115Z AUTO 00000KT 10SM CLR 04/00 A3005 RMK AO2 P0002 PWINO PNO
KFWB 171055Z AUTO 00000KT 10SM CLR 04/00 A3007 RMK AO2 P0002 PWINO PNO
KFWB 171035Z AUTO 06003KT 10SM CLR 04/00 A3007 RMK AO2 P0002 PWINO PNO
KFWB 171015Z AUTO 08003KT 10SM CLR 04/M01 A3007 RMK AO2 P0002 PWINO PNO
KFWB 170955Z AUTO 10003KT 10SM CLR 04/M01 A3007 RMK AO2 P0002 PWINO PNO
KFWB 170935Z AUTO 08004KT 10SM CLR 04/M01 A3007 RMK AO2 P0002 PWINO PNO
KFWB 170915Z AUTO 00000KT 10SM CLR 04/00 A3008 RMK AO2 P0002 PWINO PNO
KFWB 170855Z AUTO 06004KT 10SM FEW120 04/00 A3009 RMK AO2 P0002 PWINO PNO
KFWB 170835Z AUTO 00000KT 10SM FEW120 04/00 A3008 RMK AO2 P0002 PWINO PNO
KFWB 170815Z AUTO 00000KT 10SM CLR 05/M01 A3008 RMK AO2 P0002 PWINO PNO
KFWB 170755Z AUTO 11003KT 10SM CLR 05/M01 A3008 RMK AO2 P0002 PWINO PNO
KFWB 170735Z AUTO 07003KT 10SM CLR 05/M01 A3009 RMK AO2 P0002 PWINO PNO
KFWB 170715Z AUTO 08004KT 10SM CLR 05/M02 A3010 RMK AO2 P0002 PWINO PNO
KFWB 170655Z AUTO 00000KT 10SM CLR 05/M02 A3009 RMK AO2 P0002 PWINO PNO
KFWB 170635Z AUTO 08003KT 10SM CLR 06/M02 A3010 RMK AO2 P0002 PWINO PNO
KFWB 170615Z AUTO 11003KT 10SM CLR 06/M02 A3010 RMK AO2 P0002 PWINO PNO
KFWB 170555Z AUTO 00000KT 10SM CLR 07/M02 A3011 RMK AO2 P0002 PWINO PNO
KFWB 170535Z AUTO 09003KT 10SM CLR 06/M02 A3010 RMK AO2 P0002 PWINO PNO
KFWB 170515Z AUTO 11003KT 10SM CLR 07/M02 A3011 RMK AO2 P0002 PWINO PNO
KFWB 170455Z AUTO 10003KT 10SM CLR 07/M02 A3010 RMK AO2 P0002 PWINO PNO
KFWB 170435Z AUTO 11003KT 10SM CLR 07/M02 A3011 RMK AO2 P0002 PWINO PNO
KFWB 170415Z AUTO 00000KT 10SM CLR A3011 RMK AO2 P0002 PWINO PNO
KFWB 170355Z AUTO 14003KT 10SM CLR 07/M02 A3011 RMK AO2 P0002 PWINO PNO
KFWB 170335Z AUTO 12005KT 10SM CLR 07/M02 A3010 RMK AO2 P0002 PWINO PNO
KFWB 170315Z AUTO 12005KT 10SM CLR 07/M02 A3010 RMK AO2 P0002 PWINO PNO
KFWB 170255Z AUTO 12007KT 10SM CLR 07/M02 A3010 RMK AO2 P0002 PWINO PNO
KFWB 170235Z AUTO 12007KT 10SM CLR 07/M02 A3010 RMK AO2 P0002 PWINO PNO
KFWB 170215Z AUTO 12010G14KT 10SM CLR 07/M02 A3010 RMK AO2 P0002 PWINO PNO
KFWB 170155Z AUTO 12010KT 10SM CLR 07/M02 A3011 RMK AO2 P0002 PWINO PNO
KFWB 170135Z AUTO 12009KT 10SM CLR 07/M02 A3011 RMK AO2 P0002 PWINO PNO
KFWB 170115Z AUTO 12010KT 10SM CLR 07/M02 A3011 RMK AO2 P0002 PWINO PNO
KFWB 170055Z AUTO 12010KT 10SM CLR 08/M02 A3011 RMK AO2 P0002 PWINO PNO
KFWB 170035Z AUTO 12010KT 10SM CLR 08/M02 A3012 RMK AO2 P0002 PWINO PNO
KFWB 170015Z AUTO 11008KT 10SM CLR 08/M02 A3012 RMK AO2 P0002 PWINO PNO
KFWB 162355Z AUTO 12008KT 10SM CLR 08/M02 A3012 RMK AO2 P0002 PWINO PNO
KFWB 162335Z AUTO 11008KT 10SM CLR 09/M03 A3011 RMK AO2 P0002 PWINO PNO
KFWB 162315Z AUTO 10006KT 10SM CLR 09/M03 A3011 RMK AO2 P0002 PWINO PNO
KFWB 162255Z AUTO 11005KT 10SM CLR 10/M03 A3011 RMK AO2 P0002 PWINO PNO
KFWB 162235Z AUTO 12005KT 10SM CLR 10/M03 A3012 RMK AO2 P0002 PWINO PNO
KFWB 162215Z AUTO 11005KT 10SM CLR 11/M03 A3012 RMK AO2 P0002 PWINO PNO
KFWB 162155Z AUTO 13004KT 10SM CLR 12/M03 A3013 RMK AO2 P0002 PWINO PNO
KFWB 162135Z AUTO 09005KT 10SM CLR 12/M03 A3014 RMK AO2 P0002 PWINO PNO
KFWB 162115Z AUTO 12005KT 10SM CLR 12/M03 A3014 RMK AO2 P0002 PWINO PNO
KFWB 162055Z AUTO 13007KT 10SM CLR 13/M03 A3015 RMK AO2 P0002 PWINO PNO
KFWB 162035Z AUTO 12008KT 10SM CLR 12/M03 A3015 RMK AO2 P0002 PWINO PNO
KFWB 162015Z AUTO 12007KT 10SM CLR 12/M03 A3016 RMK AO2 P0002 PWINO PNO
KFWB 161955Z AUTO 11003KT 10SM CLR 13/M03 A3017 RMK AO2 P0002 PWINO PNO
KFWB 161935Z AUTO 13004KT 10SM CLR 13/M04 A3018 RMK AO2 P0002 PWINO PNO
KFWB 161915Z AUTO 12004KT 10SM CLR 13/M04 A3019 RMK AO2 P0002 PWINO PNO
KFWB 161855Z AUTO 11004KT 10SM CLR 13/M04 A3020 RMK AO2 P0002 PWINO PNO
KFWB 161835Z AUTO 10004KT 10SM CLR 13/M04 A3021 RMK AO2 P0002 PWINO PNO
KFWB 161815Z AUTO 13004KT 10SM CLR 12/M03 A3022 RMK AO2 P0002 PWINO PNO
KFWB 161755Z AUTO 11004KT 10SM CLR 12/M03 A3023 RMK AO2 P0002 PWINO PNO
KFWB 161735Z AUTO 11003KT 10SM CLR 10/M03 A3025 RMK AO2 P0002 PWINO PNO
KFWB 161715Z AUTO 13004KT 10SM CLR 10/M03 A3026 RMK AO2 P0002 PWINO PNO
KFWB 161655Z AUTO 16004KT 10SM CLR 09/M03 A3028 RMK AO2 P0002 PWINO PNO
KFWB 161635Z AUTO 13005KT 10SM CLR 09/M03 A3029 RMK AO2 P0002 PWINO PNO
KFWB 161615Z AUTO 09006KT 10SM CLR 08/M04 A3029 RMK AO2 P0002 PWINO PNO
KFWB 161555Z AUTO 12005KT 10SM CLR 08/M04 A3030 RMK AO2 P0002 PWINO PNO
KFWB 161535Z AUTO 13008KT 10SM CLR 07/M04 A3029 RMK AO2 P0002 PWINO PNO
KFWB 161515Z AUTO 12008KT 10SM CLR 06/M04 A3030 RMK AO2 P0002 PWINO PNO
KFWB 161455Z AUTO 12007KT 10SM CLR 05/M04 A3029 RMK AO2 P0002 PWINO PNO
KFWB 161435Z AUTO 12008KT 10SM CLR 04/M04 A3029 RMK AO2 P0002 PWINO PNO
KFWB 161415Z AUTO 12006KT 10SM CLR 03/M03 A3028 RMK AO2 P0002 PWINO PNO
KFWB 161355Z AUTO 11006KT 10SM CLR 02/M03 A3028 RMK AO2 P0002 PWINO PNO
KFWB 161335Z AUTO 10007KT 10SM CLR 01/M04 A3028 RMK AO2 P0002 PWINO PNO
KFWB 161315Z AUTO 10003KT 10SM CLR 00/M04 A3029 RMK AO2 P0002 PWINO PNO
KFWB 161255Z AUTO 09004KT 10SM CLR 00/M04 A3028 RMK AO2 P0002 PWINO PNO
KFWB 161235Z AUTO 09003KT 10SM CLR 00/M05 A3028 RMK AO2 P0002 PWINO PNO
KFWB 161215Z AUTO 08003KT 10SM CLR 00/M05 A3028 RMK AO2 P0002 PWINO PNO
KFWB 161155Z AUTO 08003KT 10SM CLR 00/M06 A3028 RMK AO2 P0002 PWINO PNO
KFWB 161135Z AUTO 00000KT 10SM CLR 00/M06 A3028 RMK AO2 P0002 PWINO PNO
KFWB 161115Z AUTO 00000KT 10SM CLR 00/M06 A3028 RMK AO2 P0002 PWINO PNO
KFWB 161055Z AUTO 09003KT 10SM CLR 00/M07 A3028 RMK AO2 P0002 PWINO PNO
KFWB 161035Z AUTO 10003KT 10SM CLR 01/M06 A3028 RMK AO2 P0002 PWINO PNO
KFWB 161015Z AUTO 10003KT 10SM CLR 00/M07 A3028 RMK AO2 P0002 PWINO PNO
KFWB 160955Z AUTO 09003KT 10SM CLR 01/M08 A3028 RMK AO2 P0002 PWINO PNO
KFWB 160935Z AUTO 00000KT 10SM CLR 02/M08 A3028 RMK AO2 P0002 PWINO PNO
KFWB 160915Z AUTO 10003KT 10SM CLR 02/M08 A3028 RMK AO2 P0002 PWINO PNO
KFWB 160855Z AUTO 08003KT 10SM CLR 02/M08 A3029 RMK AO2 P0002 PWINO PNO
KFWB 160835Z AUTO 11003KT 10SM CLR 01/M07 A3029 RMK AO2 P0002 PWINO PNO
KFWB 160815Z AUTO 10003KT 10SM CLR 01/M07 A3029 RMK AO2 P0002 PWINO PNO
KFWB 160755Z AUTO 00000KT 10SM CLR 01/M07 A3029 RMK AO2 P0002 PWINO PNO